sensor_id;sensor_type;location;lat;lon;timestamp;temperature;humidity
70366;DHT22;57787;48.216;12.396;2023-08-17T00:00:43;18.20;89.60
70366;DHT22;57787;48.216;12.396;2023-08-17T00:03:11;18.20;89.60
70366;DHT22;57787;48.216;12.396;2023-08-17T00:05:39;18.20;89.60
70366;DHT22;57787;48.216;12.396;2023-08-17T00:08:06;18.20;89.60
70366;DHT22;57787;48.216;12.396;2023-08-17T00:10:33;18.10;89.50
70366;DHT22;57787;48.216;12.396;2023-08-17T00:13:00;18.10;89.40
70366;DHT22;57787;48.216;12.396;2023-08-17T00:15:29;18.10;89.20
70366;DHT22;57787;48.216;12.396;2023-08-17T00:17:56;18.10;89.40
70366;DHT22;57787;48.216;12.396;2023-08-17T00:20:23;18.00;89.40
70366;DHT22;57787;48.216;12.396;2023-08-17T00:22:50;18.00;89.20
70366;DHT22;57787;48.216;12.396;2023-08-17T00:25:18;18.00;89.40
70366;DHT22;57787;48.216;12.396;2023-08-17T00:27:44;18.00;89.50
70366;DHT22;57787;48.216;12.396;2023-08-17T00:30:12;18.00;89.60
70366;DHT22;57787;48.216;12.396;2023-08-17T00:32:39;17.90;89.40
70366;DHT22;57787;48.216;12.396;2023-08-17T00:35:06;17.90;89.40
70366;DHT22;57787;48.216;12.396;2023-08-17T00:37:33;17.90;89.50
70366;DHT22;57787;48.216;12.396;2023-08-17T00:40:00;17.90;89.60
70366;DHT22;57787;48.216;12.396;2023-08-17T00:42:27;17.80;89.60
70366;DHT22;57787;48.216;12.396;2023-08-17T00:44:53;17.80;89.70
70366;DHT22;57787;48.216;12.396;2023-08-17T00:47:20;17.80;89.70
70366;DHT22;57787;48.216;12.396;2023-08-17T00:49:47;17.80;89.70
70366;DHT22;57787;48.216;12.396;2023-08-17T00:52:14;17.80;89.80
70366;DHT22;57787;48.216;12.396;2023-08-17T00:54:41;17.80;89.80
70366;DHT22;57787;48.216;12.396;2023-08-17T00:57:08;17.90;90.10
70366;DHT22;57787;48.216;12.396;2023-08-17T00:59:35;18.00;90.30
70366;DHT22;57787;48.216;12.396;2023-08-17T01:02:03;18.10;90.40
70366;DHT22;57787;48.216;12.396;2023-08-17T01:04:29;18.20;90.50
70366;DHT22;57787;48.216;12.396;2023-08-17T01:06:57;18.30;90.50
70366;DHT22;57787;48.216;12.396;2023-08-17T01:09:24;18.40;90.20
70366;DHT22;57787;48.216;12.396;2023-08-17T01:11:57;18.50;90.10
70366;DHT22;57787;48.216;12.396;2023-08-17T01:14:31;18.60;90.40
70366;DHT22;57787;48.216;12.396;2023-08-17T01:17:04;18.60;90.30
70366;DHT22;57787;48.216;12.396;2023-08-17T01:19:33;18.70;90.30
70366;DHT22;57787;48.216;12.396;2023-08-17T01:22:03;18.70;90.00
70366;DHT22;57787;48.216;12.396;2023-08-17T01:24:30;18.70;89.70
70366;DHT22;57787;48.216;12.396;2023-08-17T01:26:57;18.80;89.80
70366;DHT22;57787;48.216;12.396;2023-08-17T01:29:24;18.80;89.60
70366;DHT22;57787;48.216;12.396;2023-08-17T01:32:04;18.70;89.80
70366;DHT22;57787;48.216;12.396;2023-08-17T01:34:35;18.70;89.70
70366;DHT22;57787;48.216;12.396;2023-08-17T01:37:05;18.70;89.60
70366;DHT22;57787;48.216;12.396;2023-08-17T01:39:35;18.70;89.70
70366;DHT22;57787;48.216;12.396;2023-08-17T01:42:03;18.70;89.70
70366;DHT22;57787;48.216;12.396;2023-08-17T01:44:31;18.60;89.60
70366;DHT22;57787;48.216;12.396;2023-08-17T01:46:58;18.60;89.60
70366;DHT22;57787;48.216;12.396;2023-08-17T01:49:25;18.50;89.40
70366;DHT22;57787;48.216;12.396;2023-08-17T01:51:52;18.50;89.50
70366;DHT22;57787;48.216;12.396;2023-08-17T01:54:19;18.40;89.60
70366;DHT22;57787;48.216;12.396;2023-08-17T01:56:46;18.50;89.60
70366;DHT22;57787;48.216;12.396;2023-08-17T01:59:13;18.50;90.00
70366;DHT22;57787;48.216;12.396;2023-08-17T02:01:43;18.40;90.10
70366;DHT22;57787;48.216;12.396;2023-08-17T02:04:10;18.40;89.80
70366;DHT22;57787;48.216;12.396;2023-08-17T02:06:37;18.40;90.10
70366;DHT22;57787;48.216;12.396;2023-08-17T02:09:05;18.40;89.80
70366;DHT22;57787;48.216;12.396;2023-08-17T02:11:31;18.30;89.90
70366;DHT22;57787;48.216;12.396;2023-08-17T02:13:58;18.40;90.80
70366;DHT22;57787;48.216;12.396;2023-08-17T02:16:27;18.40;90.40
70366;DHT22;57787;48.216;12.396;2023-08-17T02:18:54;18.30;90.20
70366;DHT22;57787;48.216;12.396;2023-08-17T02:21:20;18.30;90.10
70366;DHT22;57787;48.216;12.396;2023-08-17T02:23:47;18.30;90.00
70366;DHT22;57787;48.216;12.396;2023-08-17T02:26:16;18.30;90.10
70366;DHT22;57787;48.216;12.396;2023-08-17T02:28:42;18.30;90.20
70366;DHT22;57787;48.216;12.396;2023-08-17T02:31:10;18.30;90.30
70366;DHT22;57787;48.216;12.396;2023-08-17T02:33:37;18.30;90.40
70366;DHT22;57787;48.216;12.396;2023-08-17T02:36:04;18.20;90.50
70366;DHT22;57787;48.216;12.396;2023-08-17T02:38:31;18.20;90.60
70366;DHT22;57787;48.216;12.396;2023-08-17T02:40:58;18.10;90.50
70366;DHT22;57787;48.216;12.396;2023-08-17T02:43:24;18.00;90.40
70366;DHT22;57787;48.216;12.396;2023-08-17T02:45:53;18.00;90.60
70366;DHT22;57787;48.216;12.396;2023-08-17T02:48:23;17.90;90.40
70366;DHT22;57787;48.216;12.396;2023-08-17T02:50:50;17.90;90.70
70366;DHT22;57787;48.216;12.396;2023-08-17T02:53:18;17.80;90.90
70366;DHT22;57787;48.216;12.396;2023-08-17T02:55:44;17.80;91.20
70366;DHT22;57787;48.216;12.396;2023-08-17T02:58:11;17.80;91.20
70366;DHT22;57787;48.216;12.396;2023-08-17T03:00:38;17.80;91.00
70366;DHT22;57787;48.216;12.396;2023-08-17T03:03:05;17.70;90.80
70366;DHT22;57787;48.216;12.396;2023-08-17T03:05:33;17.70;90.70
70366;DHT22;57787;48.216;12.396;2023-08-17T03:08:01;17.60;90.80
70366;DHT22;57787;48.216;12.396;2023-08-17T03:10:28;17.60;91.00
70366;DHT22;57787;48.216;12.396;2023-08-17T03:12:56;17.60;90.90
70366;DHT22;57787;48.216;12.396;2023-08-17T03:15:23;17.50;90.90
70366;DHT22;57787;48.216;12.396;2023-08-17T03:17:50;17.50;90.80
70366;DHT22;57787;48.216;12.396;2023-08-17T03:20:17;17.40;90.80
70366;DHT22;57787;48.216;12.396;2023-08-17T03:22:44;17.40;90.90
70366;DHT22;57787;48.216;12.396;2023-08-17T03:25:11;17.40;91.10
70366;DHT22;57787;48.216;12.396;2023-08-17T03:27:39;17.40;91.10
70366;DHT22;57787;48.216;12.396;2023-08-17T03:30:06;17.30;90.90
70366;DHT22;57787;48.216;12.396;2023-08-17T03:32:33;17.30;90.90
70366;DHT22;57787;48.216;12.396;2023-08-17T03:35:00;17.30;90.80
70366;DHT22;57787;48.216;12.396;2023-08-17T03:37:27;17.30;90.90
70366;DHT22;57787;48.216;12.396;2023-08-17T03:39:55;17.20;91.00
70366;DHT22;57787;48.216;12.396;2023-08-17T03:42:24;17.20;90.90
70366;DHT22;57787;48.216;12.396;2023-08-17T03:44:51;17.20;90.90
70366;DHT22;57787;48.216;12.396;2023-08-17T03:47:18;17.10;91.00
70366;DHT22;57787;48.216;12.396;2023-08-17T03:49:45;17.10;90.90
70366;DHT22;57787;48.216;12.396;2023-08-17T03:52:13;17.10;91.00
70366;DHT22;57787;48.216;12.396;2023-08-17T03:54:39;17.10;90.80
70366;DHT22;57787;48.216;12.396;2023-08-17T03:57:09;17.00;90.70
70366;DHT22;57787;48.216;12.396;2023-08-17T03:59:36;17.10;90.70
70366;DHT22;57787;48.216;12.396;2023-08-17T04:02:02;17.00;90.80
70366;DHT22;57787;48.216;12.396;2023-08-17T04:04:29;16.90;90.60
70366;DHT22;57787;48.216;12.396;2023-08-17T04:06:56;16.90;90.50
70366;DHT22;57787;48.216;12.396;2023-08-17T04:09:23;16.90;90.60
70366;DHT22;57787;48.216;12.396;2023-08-17T04:11:50;16.90;90.40
70366;DHT22;57787;48.216;12.396;2023-08-17T04:14:17;16.90;90.40
70366;DHT22;57787;48.216;12.396;2023-08-17T04:16:45;16.80;90.30
70366;DHT22;57787;48.216;12.396;2023-08-17T04:19:12;16.80;90.20
70366;DHT22;57787;48.216;12.396;2023-08-17T04:21:39;16.90;90.00
70366;DHT22;57787;48.216;12.396;2023-08-17T04:24:06;16.90;89.60
70366;DHT22;57787;48.216;12.396;2023-08-17T04:26:33;16.90;89.60
70366;DHT22;57787;48.216;12.396;2023-08-17T04:28:59;16.90;89.60
70366;DHT22;57787;48.216;12.396;2023-08-17T04:31:26;17.00;89.90
70366;DHT22;57787;48.216;12.396;2023-08-17T04:33:53;17.00;89.80
70366;DHT22;57787;48.216;12.396;2023-08-17T04:36:20;17.10;89.50
70366;DHT22;57787;48.216;12.396;2023-08-17T04:38:47;17.10;89.10
70366;DHT22;57787;48.216;12.396;2023-08-17T04:41:13;17.20;89.00
70366;DHT22;57787;48.216;12.396;2023-08-17T04:43:40;17.30;89.10
70366;DHT22;57787;48.216;12.396;2023-08-17T04:46:07;17.40;88.60
70366;DHT22;57787;48.216;12.396;2023-08-17T04:48:34;17.40;88.60
70366;DHT22;57787;48.216;12.396;2023-08-17T04:51:01;17.50;88.40
70366;DHT22;57787;48.216;12.396;2023-08-17T04:53:28;17.60;88.60
70366;DHT22;57787;48.216;12.396;2023-08-17T04:55:58;17.70;88.40
70366;DHT22;57787;48.216;12.396;2023-08-17T04:58:25;17.80;87.90
70366;DHT22;57787;48.216;12.396;2023-08-17T05:00:52;17.90;87.70
70366;DHT22;57787;48.216;12.396;2023-08-17T05:03:18;18.00;87.80
70366;DHT22;57787;48.216;12.396;2023-08-17T05:05:58;18.20;87.10
70366;DHT22;57787;48.216;12.396;2023-08-17T05:08:25;18.30;86.90
70366;DHT22;57787;48.216;12.396;2023-08-17T05:10:54;18.40;86.40
70366;DHT22;57787;48.216;12.396;2023-08-17T05:13:21;18.40;86.30
70366;DHT22;57787;48.216;12.396;2023-08-17T05:15:48;18.60;85.90
70366;DHT22;57787;48.216;12.396;2023-08-17T05:18:15;18.80;85.70
70366;DHT22;57787;48.216;12.396;2023-08-17T05:20:42;19.00;85.10
70366;DHT22;57787;48.216;12.396;2023-08-17T05:23:09;19.30;84.20
70366;DHT22;57787;48.216;12.396;2023-08-17T05:25:36;19.50;83.70
70366;DHT22;57787;48.216;12.396;2023-08-17T05:28:02;19.60;83.40
70366;DHT22;57787;48.216;12.396;2023-08-17T05:30:29;19.60;83.60
70366;DHT22;57787;48.216;12.396;2023-08-17T05:32:56;19.60;84.50
70366;DHT22;57787;48.216;12.396;2023-08-17T05:35:24;19.70;84.80
70366;DHT22;57787;48.216;12.396;2023-08-17T05:37:51;19.90;84.40
70366;DHT22;57787;48.216;12.396;2023-08-17T05:40:18;20.10;84.40
70366;DHT22;57787;48.216;12.396;2023-08-17T05:42:45;20.10;84.70
70366;DHT22;57787;48.216;12.396;2023-08-17T05:45:12;20.20;84.50
70366;DHT22;57787;48.216;12.396;2023-08-17T05:47:40;20.30;84.30
70366;DHT22;57787;48.216;12.396;2023-08-17T05:50:07;20.50;84.10
70366;DHT22;57787;48.216;12.396;2023-08-17T05:52:35;20.80;82.90
70366;DHT22;57787;48.216;12.396;2023-08-17T05:55:02;21.00;82.50
70366;DHT22;57787;48.216;12.396;2023-08-17T05:57:29;21.60;80.80
70366;DHT22;57787;48.216;12.396;2023-08-17T05:59:57;23.20;75.20
70366;DHT22;57787;48.216;12.396;2023-08-17T06:02:24;24.40;70.30
70366;DHT22;57787;48.216;12.396;2023-08-17T06:04:51;24.50;69.90
70366;DHT22;57787;48.216;12.396;2023-08-17T06:07:18;24.30;69.60
70366;DHT22;57787;48.216;12.396;2023-08-17T06:09:45;24.20;70.60
70366;DHT22;57787;48.216;12.396;2023-08-17T06:12:11;23.70;70.80
70366;DHT22;57787;48.216;12.396;2023-08-17T06:14:38;22.90;72.70
70366;DHT22;57787;48.216;12.396;2023-08-17T06:17:05;22.30;75.10
70366;DHT22;57787;48.216;12.396;2023-08-17T06:19:32;22.00;76.80
70366;DHT22;57787;48.216;12.396;2023-08-17T06:21:59;22.00;77.70
70366;DHT22;57787;48.216;12.396;2023-08-17T06:24:26;22.20;77.70
70366;DHT22;57787;48.216;12.396;2023-08-17T06:26:53;22.40;76.80
70366;DHT22;57787;48.216;12.396;2023-08-17T06:29:20;22.60;76.10
70366;DHT22;57787;48.216;12.396;2023-08-17T06:31:47;22.50;75.50
70366;DHT22;57787;48.216;12.396;2023-08-17T06:34:14;22.60;75.90
70366;DHT22;57787;48.216;12.396;2023-08-17T06:36:53;22.70;75.50
70366;DHT22;57787;48.216;12.396;2023-08-17T06:39:22;22.80;75.40
70366;DHT22;57787;48.216;12.396;2023-08-17T06:41:52;23.00;75.20
70366;DHT22;57787;48.216;12.396;2023-08-17T06:44:19;23.10;74.20
70366;DHT22;57787;48.216;12.396;2023-08-17T06:46:45;23.30;74.10
70366;DHT22;57787;48.216;12.396;2023-08-17T06:49:12;23.50;73.60
70366;DHT22;57787;48.216;12.396;2023-08-17T06:51:39;23.70;73.40
70366;DHT22;57787;48.216;12.396;2023-08-17T06:54:07;23.80;72.70
70366;DHT22;57787;48.216;12.396;2023-08-17T06:56:37;23.90;73.00
70366;DHT22;57787;48.216;12.396;2023-08-17T06:59:03;24.10;71.80
70366;DHT22;57787;48.216;12.396;2023-08-17T07:01:30;24.20;71.20
70366;DHT22;57787;48.216;12.396;2023-08-17T07:03:57;24.30;70.60
70366;DHT22;57787;48.216;12.396;2023-08-17T07:06:24;24.60;71.70
70366;DHT22;57787;48.216;12.396;2023-08-17T07:08:51;24.60;71.40
70366;DHT22;57787;48.216;12.396;2023-08-17T07:11:20;24.70;70.20
70366;DHT22;57787;48.216;12.396;2023-08-17T07:13:49;25.00;69.50
70366;DHT22;57787;48.216;12.396;2023-08-17T07:16:18;25.30;68.80
70366;DHT22;57787;48.216;12.396;2023-08-17T07:18:45;25.50;68.30
70366;DHT22;57787;48.216;12.396;2023-08-17T07:21:12;25.80;66.30
70366;DHT22;57787;48.216;12.396;2023-08-17T07:23:43;25.80;65.70
70366;DHT22;57787;48.216;12.396;2023-08-17T07:26:10;25.30;65.70
70366;DHT22;57787;48.216;12.396;2023-08-17T07:28:38;25.20;66.70
70366;DHT22;57787;48.216;12.396;2023-08-17T07:31:05;25.10;65.80
70366;DHT22;57787;48.216;12.396;2023-08-17T07:33:32;25.20;67.40
70366;DHT22;57787;48.216;12.396;2023-08-17T07:36:00;25.40;67.90
70366;DHT22;57787;48.216;12.396;2023-08-17T07:38:28;25.30;67.20
70366;DHT22;57787;48.216;12.396;2023-08-17T07:40:55;25.20;67.10
70366;DHT22;57787;48.216;12.396;2023-08-17T07:43:24;25.30;67.30
70366;DHT22;57787;48.216;12.396;2023-08-17T07:45:56;25.60;67.50
70366;DHT22;57787;48.216;12.396;2023-08-17T07:48:22;25.90;65.70
70366;DHT22;57787;48.216;12.396;2023-08-17T07:50:50;26.10;65.70
70366;DHT22;57787;48.216;12.396;2023-08-17T07:53:17;26.10;67.50
70366;DHT22;57787;48.216;12.396;2023-08-17T07:55:45;26.20;64.80
70366;DHT22;57787;48.216;12.396;2023-08-17T07:58:12;26.30;65.20
70366;DHT22;57787;48.216;12.396;2023-08-17T08:00:39;26.60;65.70
70366;DHT22;57787;48.216;12.396;2023-08-17T08:03:06;26.80;62.90
70366;DHT22;57787;48.216;12.396;2023-08-17T08:05:33;26.80;63.10
70366;DHT22;57787;48.216;12.396;2023-08-17T08:07:59;26.90;63.00
70366;DHT22;57787;48.216;12.396;2023-08-17T08:10:28;27.00;62.80
70366;DHT22;57787;48.216;12.396;2023-08-17T08:12:59;26.90;61.70
70366;DHT22;57787;48.216;12.396;2023-08-17T08:15:26;26.60;65.20
70366;DHT22;57787;48.216;12.396;2023-08-17T08:17:52;26.80;64.30
70366;DHT22;57787;48.216;12.396;2023-08-17T08:20:20;27.00;64.10
70366;DHT22;57787;48.216;12.396;2023-08-17T08:22:47;27.30;63.20
70366;DHT22;57787;48.216;12.396;2023-08-17T08:25:14;27.30;62.90
70366;DHT22;57787;48.216;12.396;2023-08-17T08:27:41;27.50;62.30
70366;DHT22;57787;48.216;12.396;2023-08-17T08:30:09;27.60;61.90
70366;DHT22;57787;48.216;12.396;2023-08-17T08:32:35;27.60;62.10
70366;DHT22;57787;48.216;12.396;2023-08-17T08:35:02;27.80;60.20
70366;DHT22;57787;48.216;12.396;2023-08-17T08:37:34;27.90;62.80
70366;DHT22;57787;48.216;12.396;2023-08-17T08:40:01;28.00;61.50
70366;DHT22;57787;48.216;12.396;2023-08-17T08:42:27;28.30;62.80
70366;DHT22;57787;48.216;12.396;2023-08-17T08:44:54;28.40;60.80
70366;DHT22;57787;48.216;12.396;2023-08-17T08:47:22;28.50;61.40
70366;DHT22;57787;48.216;12.396;2023-08-17T08:49:58;28.50;60.60
70366;DHT22;57787;48.216;12.396;2023-08-17T08:52:35;28.70;58.30
70366;DHT22;57787;48.216;12.396;2023-08-17T08:55:04;28.60;58.10
70366;DHT22;57787;48.216;12.396;2023-08-17T08:57:31;28.80;58.20
70366;DHT22;57787;48.216;12.396;2023-08-17T09:00:02;28.90;57.30
70366;DHT22;57787;48.216;12.396;2023-08-17T09:02:30;29.00;58.40
70366;DHT22;57787;48.216;12.396;2023-08-17T09:04:57;29.20;58.70
70366;DHT22;57787;48.216;12.396;2023-08-17T09:07:26;29.20;57.30
70366;DHT22;57787;48.216;12.396;2023-08-17T09:09:56;29.40;56.70
70366;DHT22;57787;48.216;12.396;2023-08-17T09:12:23;29.50;56.50
70366;DHT22;57787;48.216;12.396;2023-08-17T09:15:06;29.60;56.70
70366;DHT22;57787;48.216;12.396;2023-08-17T09:17:33;29.80;55.60
70366;DHT22;57787;48.216;12.396;2023-08-17T09:20:03;29.80;56.20
70366;DHT22;57787;48.216;12.396;2023-08-17T09:22:37;29.90;55.00
70366;DHT22;57787;48.216;12.396;2023-08-17T09:25:05;30.00;55.80
70366;DHT22;57787;48.216;12.396;2023-08-17T09:27:33;30.00;57.40
70366;DHT22;57787;48.216;12.396;2023-08-17T09:30:01;30.10;56.10
70366;DHT22;57787;48.216;12.396;2023-08-17T09:32:30;30.10;55.70
70366;DHT22;57787;48.216;12.396;2023-08-17T09:34:57;30.00;57.60
70366;DHT22;57787;48.216;12.396;2023-08-17T09:37:24;30.20;57.20
70366;DHT22;57787;48.216;12.396;2023-08-17T09:39:53;30.30;56.10
70366;DHT22;57787;48.216;12.396;2023-08-17T09:42:21;30.30;54.00
70366;DHT22;57787;48.216;12.396;2023-08-17T09:44:49;30.30;53.50
70366;DHT22;57787;48.216;12.396;2023-08-17T09:47:18;30.40;56.00
70366;DHT22;57787;48.216;12.396;2023-08-17T09:49:48;30.50;54.50
70366;DHT22;57787;48.216;12.396;2023-08-17T09:52:15;30.50;53.90
70366;DHT22;57787;48.216;12.396;2023-08-17T09:54:45;30.60;55.70
70366;DHT22;57787;48.216;12.396;2023-08-17T09:57:18;30.50;53.30
70366;DHT22;57787;48.216;12.396;2023-08-17T09:59:48;30.60;54.40
70366;DHT22;57787;48.216;12.396;2023-08-17T10:02:22;30.60;52.20
70366;DHT22;57787;48.216;12.396;2023-08-17T10:04:52;30.70;56.30
70366;DHT22;57787;48.216;12.396;2023-08-17T10:07:21;30.70;52.90
70366;DHT22;57787;48.216;12.396;2023-08-17T10:09:58;30.80;53.50
70366;DHT22;57787;48.216;12.396;2023-08-17T10:12:27;30.80;52.70
70366;DHT22;57787;48.216;12.396;2023-08-17T10:15:03;30.80;49.00
70366;DHT22;57787;48.216;12.396;2023-08-17T10:17:35;30.70;49.70
70366;DHT22;57787;48.216;12.396;2023-08-17T10:20:04;30.80;50.40
70366;DHT22;57787;48.216;12.396;2023-08-17T10:22:33;30.80;51.40
70366;DHT22;57787;48.216;12.396;2023-08-17T10:25:04;31.00;54.50
70366;DHT22;57787;48.216;12.396;2023-08-17T10:27:32;30.70;47.30
70366;DHT22;57787;48.216;12.396;2023-08-17T10:30:00;30.60;48.90
70366;DHT22;57787;48.216;12.396;2023-08-17T10:32:27;30.60;51.30
70366;DHT22;57787;48.216;12.396;2023-08-17T10:34:56;30.60;51.10
70366;DHT22;57787;48.216;12.396;2023-08-17T10:37:23;30.70;51.50
70366;DHT22;57787;48.216;12.396;2023-08-17T10:39:52;30.80;52.10
70366;DHT22;57787;48.216;12.396;2023-08-17T10:42:29;30.80;50.50
70366;DHT22;57787;48.216;12.396;2023-08-17T10:44:58;30.90;50.10
70366;DHT22;57787;48.216;12.396;2023-08-17T10:47:31;30.70;48.70
70366;DHT22;57787;48.216;12.396;2023-08-17T10:52:32;30.80;51.50
70366;DHT22;57787;48.216;12.396;2023-08-17T10:55:00;31.00;52.30
70366;DHT22;57787;48.216;12.396;2023-08-17T10:57:31;31.10;52.20
70366;DHT22;57787;48.216;12.396;2023-08-17T11:00:05;31.10;50.90
70366;DHT22;57787;48.216;12.396;2023-08-17T11:08:07;31.50;51.00
70366;DHT22;57787;48.216;12.396;2023-08-17T11:10:37;31.10;50.20
70366;DHT22;57787;48.216;12.396;2023-08-17T11:13:05;30.90;50.50
70366;DHT22;57787;48.216;12.396;2023-08-17T11:15:40;31.00;51.50
70366;DHT22;57787;48.216;12.396;2023-08-17T11:18:12;31.20;53.20
70366;DHT22;57787;48.216;12.396;2023-08-17T11:20:40;31.20;51.10
70366;DHT22;57787;48.216;12.396;2023-08-17T11:23:07;31.30;50.80
70366;DHT22;57787;48.216;12.396;2023-08-17T11:25:34;31.10;51.10
70366;DHT22;57787;48.216;12.396;2023-08-17T11:28:02;31.20;51.00
70366;DHT22;57787;48.216;12.396;2023-08-17T11:30:29;31.30;53.00
70366;DHT22;57787;48.216;12.396;2023-08-17T11:32:56;31.10;50.20
70366;DHT22;57787;48.216;12.396;2023-08-17T11:35:23;31.20;50.40
70366;DHT22;57787;48.216;12.396;2023-08-17T11:37:50;31.40;49.70
70366;DHT22;57787;48.216;12.396;2023-08-17T11:40:17;31.40;49.00
70366;DHT22;57787;48.216;12.396;2023-08-17T11:42:44;31.50;50.20
70366;DHT22;57787;48.216;12.396;2023-08-17T11:45:11;31.70;50.80
70366;DHT22;57787;48.216;12.396;2023-08-17T11:47:40;31.70;50.50
70366;DHT22;57787;48.216;12.396;2023-08-17T11:50:08;31.70;48.70
70366;DHT22;57787;48.216;12.396;2023-08-17T11:52:46;31.50;49.60
70366;DHT22;57787;48.216;12.396;2023-08-17T11:55:15;31.50;51.10
70366;DHT22;57787;48.216;12.396;2023-08-17T11:57:47;31.60;48.40
70366;DHT22;57787;48.216;12.396;2023-08-17T12:00:18;31.70;48.70
70366;DHT22;57787;48.216;12.396;2023-08-17T12:02:47;31.70;50.00
70366;DHT22;57787;48.216;12.396;2023-08-17T12:05:18;31.70;47.10
70366;DHT22;57787;48.216;12.396;2023-08-17T12:07:46;31.80;47.60
70366;DHT22;57787;48.216;12.396;2023-08-17T12:10:13;31.80;48.10
70366;DHT22;57787;48.216;12.396;2023-08-17T12:12:44;31.70;48.40
70366;DHT22;57787;48.216;12.396;2023-08-17T12:15:12;31.70;48.40
70366;DHT22;57787;48.216;12.396;2023-08-17T12:17:49;31.80;50.80
70366;DHT22;57787;48.216;12.396;2023-08-17T12:20:20;31.70;46.80
70366;DHT22;57787;48.216;12.396;2023-08-17T12:22:47;31.80;47.50
70366;DHT22;57787;48.216;12.396;2023-08-17T12:25:14;31.80;53.00
70366;DHT22;57787;48.216;12.396;2023-08-17T12:27:43;31.90;51.70
70366;DHT22;57787;48.216;12.396;2023-08-17T12:30:26;31.80;48.80
70366;DHT22;57787;48.216;12.396;2023-08-17T12:32:54;31.80;47.00
70366;DHT22;57787;48.216;12.396;2023-08-17T12:35:24;31.90;47.20
70366;DHT22;57787;48.216;12.396;2023-08-17T12:37:52;31.80;47.60
70366;DHT22;57787;48.216;12.396;2023-08-17T12:40:19;31.90;48.00
70366;DHT22;57787;48.216;12.396;2023-08-17T12:42:47;31.90;46.70
70366;DHT22;57787;48.216;12.396;2023-08-17T12:45:14;31.80;47.20
70366;DHT22;57787;48.216;12.396;2023-08-17T12:47:42;32.00;45.60
70366;DHT22;57787;48.216;12.396;2023-08-17T12:50:09;32.00;44.80
70366;DHT22;57787;48.216;12.396;2023-08-17T12:52:37;32.00;48.40
70366;DHT22;57787;48.216;12.396;2023-08-17T12:55:04;31.90;44.60
70366;DHT22;57787;48.216;12.396;2023-08-17T12:57:30;31.90;44.30
70366;DHT22;57787;48.216;12.396;2023-08-17T12:59:57;31.80;43.90
70366;DHT22;57787;48.216;12.396;2023-08-17T13:02:24;31.80;45.60
70366;DHT22;57787;48.216;12.396;2023-08-17T13:04:52;31.80;46.70
70366;DHT22;57787;48.216;12.396;2023-08-17T13:07:18;31.90;44.70
70366;DHT22;57787;48.216;12.396;2023-08-17T13:09:47;31.70;44.50
70366;DHT22;57787;48.216;12.396;2023-08-17T13:12:14;31.70;46.20
70366;DHT22;57787;48.216;12.396;2023-08-17T13:14:41;31.60;44.50
70366;DHT22;57787;48.216;12.396;2023-08-17T13:17:08;31.50;44.50
70366;DHT22;57787;48.216;12.396;2023-08-17T13:19:35;31.60;46.70
70366;DHT22;57787;48.216;12.396;2023-08-17T13:22:02;31.60;45.50
70366;DHT22;57787;48.216;12.396;2023-08-17T13:24:29;31.70;44.70
70366;DHT22;57787;48.216;12.396;2023-08-17T13:26:56;31.80;43.70
70366;DHT22;57787;48.216;12.396;2023-08-17T13:29:24;31.70;43.40
70366;DHT22;57787;48.216;12.396;2023-08-17T13:31:53;31.60;44.70
70366;DHT22;57787;48.216;12.396;2023-08-17T13:34:20;31.60;44.30
70366;DHT22;57787;48.216;12.396;2023-08-17T13:36:47;31.60;43.80
70366;DHT22;57787;48.216;12.396;2023-08-17T13:39:14;31.40;41.20
70366;DHT22;57787;48.216;12.396;2023-08-17T13:41:42;31.40;40.90
70366;DHT22;57787;48.216;12.396;2023-08-17T13:44:10;31.30;41.80
70366;DHT22;57787;48.216;12.396;2023-08-17T13:46:38;31.40;47.00
70366;DHT22;57787;48.216;12.396;2023-08-17T13:49:06;31.50;43.90
70366;DHT22;57787;48.216;12.396;2023-08-17T13:51:33;31.50;45.20
70366;DHT22;57787;48.216;12.396;2023-08-17T13:53:59;31.60;43.00
70366;DHT22;57787;48.216;12.396;2023-08-17T13:56:27;31.50;43.30
70366;DHT22;57787;48.216;12.396;2023-08-17T13:58:55;31.70;42.10
70366;DHT22;57787;48.216;12.396;2023-08-17T14:01:22;31.50;38.10
70366;DHT22;57787;48.216;12.396;2023-08-17T14:03:49;31.40;42.10
70366;DHT22;57787;48.216;12.396;2023-08-17T14:06:16;31.10;42.20
70366;DHT22;57787;48.216;12.396;2023-08-17T14:08:43;30.80;42.40
70366;DHT22;57787;48.216;12.396;2023-08-17T14:11:10;30.50;42.90
70366;DHT22;57787;48.216;12.396;2023-08-17T14:13:37;30.30;43.60
70366;DHT22;57787;48.216;12.396;2023-08-17T14:16:05;30.20;44.30
70366;DHT22;57787;48.216;12.396;2023-08-17T14:18:32;30.10;44.00
70366;DHT22;57787;48.216;12.396;2023-08-17T14:20:59;30.10;44.90
70366;DHT22;57787;48.216;12.396;2023-08-17T14:23:27;30.20;45.40
70366;DHT22;57787;48.216;12.396;2023-08-17T14:25:54;30.30;45.20
70366;DHT22;57787;48.216;12.396;2023-08-17T14:28:21;30.30;45.10
70366;DHT22;57787;48.216;12.396;2023-08-17T14:30:49;30.20;45.50
70366;DHT22;57787;48.216;12.396;2023-08-17T14:33:19;30.20;46.10
70366;DHT22;57787;48.216;12.396;2023-08-17T14:35:46;30.20;45.10
70366;DHT22;57787;48.216;12.396;2023-08-17T14:38:13;30.40;44.40
70366;DHT22;57787;48.216;12.396;2023-08-17T14:40:45;30.50;46.20
70366;DHT22;57787;48.216;12.396;2023-08-17T14:43:12;30.40;43.60
70366;DHT22;57787;48.216;12.396;2023-08-17T14:45:41;30.40;43.80
70366;DHT22;57787;48.216;12.396;2023-08-17T14:48:08;30.40;42.40
70366;DHT22;57787;48.216;12.396;2023-08-17T14:50:36;30.60;42.50
70366;DHT22;57787;48.216;12.396;2023-08-17T14:53:04;30.80;43.10
70366;DHT22;57787;48.216;12.396;2023-08-17T14:55:34;30.80;40.70
70366;DHT22;57787;48.216;12.396;2023-08-17T15:00:44;30.80;43.30
70366;DHT22;57787;48.216;12.396;2023-08-17T15:03:12;30.80;42.60
70366;DHT22;57787;48.216;12.396;2023-08-17T15:05:41;30.90;42.90
70366;DHT22;57787;48.216;12.396;2023-08-17T15:08:10;31.00;42.90
70366;DHT22;57787;48.216;12.396;2023-08-17T15:10:39;31.00;42.80
70366;DHT22;57787;48.216;12.396;2023-08-17T15:13:06;30.80;42.20
70366;DHT22;57787;48.216;12.396;2023-08-17T15:15:36;30.70;42.90
70366;DHT22;57787;48.216;12.396;2023-08-17T15:18:04;30.80;42.00
70366;DHT22;57787;48.216;12.396;2023-08-17T15:20:31;30.70;42.30
70366;DHT22;57787;48.216;12.396;2023-08-17T15:23:00;30.60;41.80
70366;DHT22;57787;48.216;12.396;2023-08-17T15:25:28;30.40;43.40
70366;DHT22;57787;48.216;12.396;2023-08-17T15:27:56;30.40;43.40
70366;DHT22;57787;48.216;12.396;2023-08-17T15:30:24;30.30;42.70